Austin, Nevada
Current Conditions -  °F | °C
As of 10:56 AM on Monday 22 Dec 2014 (Local Time) from KNFL Reporting Station
Scattered Clouds Scattered Clouds  
Wind Chill: 57°   Ceiling: Unl
Heat Index: 57°   Visibility: 10mi
Dew Point: 39°   Wind: 15mph
Humidity: 51%   Direction: 300°WNW
Pressure: 30.28"   Gusts: NA
Location:  39.49°N, 117.07°W
Report Text: KNFL 221856Z 30013KT 10SM FEW050 FEW090 SCT150 SCT220 14/04 A3028 RMK AO2 SLP215 T01390039
Loading
Personal Weather Stations






























Interactive Weather Map New forecast layout! Learn more

10-Day Weather Forecast

Advertisements
Track Severe Weather on mobile